Time;durP1;ratioP1;P1;durP2;ratioP2;P2;SDS_P1;SDS_P2;PMS_P1;PMS_P2;Temp;Humidity;BMP_temperature;BMP_pressure;BME280_temperature;BME280_humidity;BME280_pressure;Samples;Min_cycle;Max_cycle;Signal;HPM_P1;HPM_P2
2022/01/21 00:01:57;;;;;;;26.10;3.28;;;1.50;99.90;;;;;;5098380;28;20122;-93
2022/01/21 00:04:22;;;;;;;20.42;2.60;;;1.90;99.90;;;;;;5098113;28;20038;-94
2022/01/21 00:06:48;;;;;;;21.55;2.90;;;1.50;99.90;;;;;;5098219;28;20080;-94
2022/01/21 00:09:14;;;;;;;22.50;2.88;;;1.50;99.90;;;;;;5097523;28;20139;-92
2022/01/21 00:11:40;;;;;;;24.08;2.85;;;1.50;99.90;;;;;;5114829;28;20044;-93
2022/01/21 00:14:07;;;;;;;18.15;2.40;;;1.60;99.90;;;;;;5098574;28;20048;-93
2022/01/21 00:16:35;;;;;;;23.23;2.72;;;1.70;99.90;;;;;;5098917;28;20047;-94
2022/01/21 00:19:10;;;;;;;23.98;2.47;;;1.30;99.90;;;;;;5114971;28;20044;-92
2022/01/21 00:30:11;;;;;;;24.30;1.92;;;1.30;99.90;;;;;;5114531;28;20135;-93
2022/01/21 00:32:37;;;;;;;13.82;1.67;;;1.40;99.90;;;;;;5098229;28;20076;-93
2022/01/21 00:35:04;;;;;;;12.73;1.92;;;1.50;99.90;;;;;;5098335;28;20039;-93
2022/01/21 00:37:30;;;;;;;11.98;1.63;;;1.60;99.90;;;;;;5098671;28;20112;-94
2022/01/21 00:39:58;;;;;;;14.60;2.00;;;1.70;99.90;;;;;;5098764;28;20434;-93
2022/01/21 00:45:04;;;;;;;11.30;1.67;;;1.90;99.90;;;;;;5114354;28;20108;-93
2022/01/21 00:47:29;;;;;;;15.82;2.05;;;1.90;99.90;;;;;;5108637;27;20050;-94
2022/01/21 00:49:56;;;;;;;15.98;1.88;;;2.00;99.90;;;;;;5121482;27;20503;-95
2022/01/21 00:52:21;;;;;;;22.23;2.33;;;2.00;99.90;;;;;;5121168;27;20081;-93
2022/01/21 00:54:47;;;;;;;10.60;1.65;;;2.00;99.90;;;;;;5120929;27;20077;-93
2022/01/21 00:57:13;;;;;;;14.05;1.73;;;2.10;99.90;;;;;;5124131;27;20034;-92
2022/01/21 00:59:39;;;;;;;17.45;2.30;;;2.00;99.90;;;;;;5123105;27;20035;-93
2022/01/21 01:02:05;;;;;;;14.27;1.73;;;2.10;99.90;;;;;;5124073;27;20042;-94
2022/01/21 01:04:31;;;;;;;15.60;1.90;;;1.80;99.90;;;;;;5139797;27;20038;-93
2022/01/21 01:06:57;;;;;;;17.48;1.83;;;1.80;99.90;;;;;;5138451;27;20035;-94
2022/01/21 01:09:23;;;;;;;16.48;1.90;;;1.70;99.90;;;;;;5124826;27;20038;-93
2022/01/21 01:12:09;;;;;;;12.18;1.90;;;1.80;99.90;;;;;;5122735;27;20047;-93
2022/01/21 01:20:08;;;;;;;11.55;1.45;;;1.80;99.90;;;;;;5138676;27;20129;-93
2022/01/21 01:22:53;;;;;;;15.05;1.67;;;1.60;99.90;;;;;;5122063;27;20038;-94
2022/01/21 01:28:03;;;;;;;9.40;1.25;;;1.60;99.90;;;;;;5138918;27;20046;-94
2022/01/21 01:30:31;;;;;;;16.98;1.77;;;1.60;99.90;;;;;;5122140;27;20035;-95
2022/01/21 01:32:59;;;;;;;17.92;1.80;;;1.60;99.90;;;;;;5121585;27;20042;-94
2022/01/21 01:35:30;;;;;;;16.20;1.67;;;1.50;99.90;;;;;;5122710;27;20130;-94
2022/01/21 01:40:56;;;;;;;9.32;1.40;;;1.70;99.90;;;;;;5139500;27;20383;-94
2022/01/21 01:51:16;;;;;;;13.38;1.60;;;1.70;99.90;;;;;;5138310;27;20047;-93
2022/01/21 01:53:51;;;;;;;13.10;1.58;;;1.50;99.90;;;;;;5122108;27;20049;-93
2022/01/21 01:56:21;;;;;;;19.30;1.85;;;1.50;99.90;;;;;;5121016;27;20045;-94
2022/01/21 01:58:47;;;;;;;13.55;1.48;;;1.50;99.90;;;;;;5122627;27;20102;-94
2022/01/21 02:01:13;;;;;;;16.35;1.75;;;1.50;99.90;;;;;;5137834;27;20126;-94
2022/01/21 02:03:39;;;;;;;11.75;1.13;;;1.60;99.90;;;;;;5121063;27;20042;-95
2022/01/21 02:06:05;;;;;;;15.52;1.75;;;1.70;99.90;;;;;;5120980;27;20176;-94
2022/01/21 02:08:31;;;;;;;16.00;1.83;;;1.70;99.90;;;;;;5137461;27;20126;-93
2022/01/21 02:10:57;;;;;;;19.50;2.38;;;2.00;99.90;;;;;;5120632;27;20133;-93
2022/01/21 02:13:27;;;;;;;17.23;1.85;;;2.00;99.90;;;;;;5120350;27;20131;-93
2022/01/21 02:16:03;;;;;;;15.55;1.42;;;1.70;99.90;;;;;;5121385;27;20082;-93
2022/01/21 02:21:32;;;;;;;14.10;1.70;;;1.90;99.90;;;;;;5137467;27;20145;-93
2022/01/21 02:24:08;;;;;;;18.25;2.20;;;1.90;99.90;;;;;;5120068;27;20053;-93
2022/01/21 02:26:35;;;;;;;15.70;1.45;;;1.80;99.90;;;;;;5120364;27;20334;-94
2022/01/21 02:29:04;;;;;;;13.05;1.80;;;1.70;99.90;;;;;;5120645;27;20403;-94
2022/01/21 02:31:30;;;;;;;15.32;1.35;;;1.70;99.90;;;;;;5120951;27;20039;-95
2022/01/21 02:33:57;;;;;;;20.00;1.48;;;1.50;99.90;;;;;;5139871;27;20050;-93
2022/01/21 02:36:23;;;;;;;14.80;2.00;;;1.60;99.90;;;;;;5123795;27;20125;-94
2022/01/21 02:38:48;;;;;;;19.45;1.80;;;1.60;99.90;;;;;;5123449;27;20038;-94
2022/01/21 02:41:14;;;;;;;9.98;1.30;;;1.60;99.90;;;;;;5141263;27;20057;-94
2022/01/21 02:43:40;;;;;;;17.02;1.80;;;1.10;99.90;;;;;;5123053;27;20041;-93
2022/01/21 02:46:08;;;;;;;20.02;2.05;;;1.40;99.90;;;;;;5140659;27;20536;-94
2022/01/21 02:48:37;;;;;;;9.75;1.13;;;0.80;99.90;;;;;;5123135;27;20114;-93
2022/01/21 02:51:09;;;;;;;18.10;1.50;;;0.90;99.90;;;;;;5123535;27;20050;-93
2022/01/21 02:56:06;;;;;;;19.50;1.70;;;0.90;99.90;;;;;;5140214;27;20051;-93
2022/01/21 02:58:32;;;;;;;16.83;1.63;;;0.90;99.90;;;;;;5140302;27;20425;-93
2022/01/21 03:00:59;;;;;;;13.55;1.67;;;0.90;99.90;;;;;;5123426;27;20045;-93
2022/01/21 03:03:25;;;;;;;14.73;1.50;;;0.90;99.90;;;;;;5122918;27;20428;-94
2022/01/21 03:05:50;;;;;;;12.77;1.63;;;1.00;99.90;;;;;;5123122;27;20074;-93
2022/01/21 03:08:16;;;;;;;11.57;1.65;;;1.20;99.90;;;;;;5142645;27;20042;-93
2022/01/21 03:10:42;;;;;;;16.23;1.80;;;1.20;99.90;;;;;;5122690;27;20091;-92
2022/01/21 03:13:08;;;;;;;12.15;1.60;;;1.40;99.90;;;;;;5122760;27;20379;-94
2022/01/21 03:15:36;;;;;;;12.85;1.40;;;1.30;99.90;;;;;;5123906;27;20034;-93
2022/01/21 03:18:02;;;;;;;13.95;1.50;;;1.40;99.90;;;;;;5124349;27;20070;-93
2022/01/21 03:20:28;;;;;;;15.55;1.77;;;1.30;99.90;;;;;;5141371;27;20039;-93
2022/01/21 03:22:54;;;;;;;17.58;1.20;;;1.40;99.90;;;;;;5124953;27;20102;-94
2022/01/21 03:25:20;;;;;;;13.15;1.55;;;1.20;99.90;;;;;;5141102;27;20125;-93
2022/01/21 03:27:45;;;;;;;11.63;1.60;;;1.20;99.90;;;;;;5139344;27;20046;-94
2022/01/21 03:30:12;;;;;;;13.85;1.27;;;1.10;99.90;;;;;;5124375;27;20050;-94
2022/01/21 03:32:38;;;;;;;14.52;1.55;;;1.00;99.90;;;;;;5122835;27;20054;-94
2022/01/21 03:35:04;;;;;;;11.02;1.45;;;1.00;99.90;;;;;;5123578;27;20042;-94
2022/01/21 03:37:30;;;;;;;18.80;1.48;;;0.90;99.90;;;;;;5124446;27;20041;-94
2022/01/21 03:39:56;;;;;;;15.25;1.40;;;0.90;99.90;;;;;;5124223;27;20039;-94
2022/01/21 03:42:21;;;;;;;18.10;1.88;;;1.10;99.90;;;;;;5123285;27;20476;-94
2022/01/21 03:44:47;;;;;;;8.48;1.30;;;1.10;99.90;;;;;;5122854;27;20042;-93
2022/01/21 03:47:13;;;;;;;17.00;1.58;;;1.20;99.90;;;;;;5123112;27;20059;-93
2022/01/21 03:49:48;;;;;;;19.10;1.55;;;1.10;99.90;;;;;;5122646;27;20042;-94
2022/01/21 03:52:14;;;;;;;10.10;1.50;;;1.70;99.90;;;;;;5123107;27;20125;-93
2022/01/21 03:54:39;;;;;;;13.85;1.20;;;1.40;99.90;;;;;;5122915;27;20081;-94
2022/01/21 03:57:05;;;;;;;19.35;2.13;;;1.40;99.90;;;;;;5122836;27;20050;-94
2022/01/21 03:59:31;;;;;;;15.90;1.80;;;1.70;99.90;;;;;;5122300;27;20043;-93
2022/01/21 04:01:57;;;;;;;19.45;1.63;;;1.50;99.90;;;;;;5122342;27;20035;-92
2022/01/21 04:04:22;;;;;;;18.15;1.58;;;1.50;99.90;;;;;;5122015;27;20125;-93
2022/01/21 04:06:48;;;;;;;25.25;2.28;;;1.50;99.90;;;;;;5121777;27;20034;-94
2022/01/21 04:09:15;;;;;;;15.57;2.00;;;1.40;99.90;;;;;;5139201;27;20053;-92
2022/01/21 04:11:41;;;;;;;14.38;2.00;;;1.40;99.90;;;;;;5122863;27;20125;-95
2022/01/21 04:14:07;;;;;;;15.43;1.73;;;1.40;99.90;;;;;;5123568;27;20074;-94
2022/01/21 04:16:33;;;;;;;18.23;1.98;;;1.50;99.90;;;;;;5122651;27;20053;-94
2022/01/21 04:18:58;;;;;;;11.77;1.63;;;1.40;99.90;;;;;;5122335;27;20368;-94
2022/01/21 04:21:24;;;;;;;19.45;1.70;;;1.00;99.90;;;;;;5123005;27;20043;-94
2022/01/21 04:23:50;;;;;;;22.90;1.70;;;0.80;99.90;;;;;;5126569;27;20038;-95
2022/01/21 04:26:15;;;;;;;17.13;1.50;;;0.80;99.90;;;;;;5124221;27;20058;-94
2022/01/21 04:28:41;;;;;;;20.83;1.60;;;0.70;99.90;;;;;;5139443;27;20543;-93
2022/01/21 04:31:07;;;;;;;14.13;1.48;;;1.00;99.90;;;;;;5131435;27;20047;-96
2022/01/21 04:33:33;;;;;;;15.93;1.88;;;0.70;99.90;;;;;;5133295;27;20083;-92
2022/01/21 04:35:59;;;;;;;18.52;1.83;;;0.70;99.90;;;;;;5128052;27;20396;-95
2022/01/21 04:38:28;;;;;;;18.02;1.80;;;0.70;99.90;;;;;;5133674;27;20125;-96
2022/01/21 04:41:17;;;;;;;17.30;2.03;;;0.60;99.90;;;;;;5131798;27;20077;-96
2022/01/21 04:49:29;;;;;;;308.88;26.90;;;0.70;99.90;;;;;;5071212;28;20056;-94
2022/01/21 04:52:03;;;;;;;188.13;11.55;;;0.20;99.90;;;;;;5052454;28;20112;-96
2022/01/21 04:54:30;;;;;;;19.92;1.50;;;0.80;99.90;;;;;;5068684;28;20063;-95
2022/01/21 04:56:56;;;;;;;644.42;67.65;;;0.80;99.90;;;;;;5065601;28;20052;-95
2022/01/21 04:59:23;;;;;;;13.68;1.40;;;1.00;99.90;;;;;;5050516;28;20095;-95
2022/01/21 05:01:59;;;;;;;527.22;40.15;;;1.00;99.90;;;;;;5049762;28;20059;-96
2022/01/21 05:04:33;;;;;;;8.95;1.67;;;1.00;99.90;;;;;;5050094;28;20049;-96
2022/01/21 05:07:00;;;;;;;22.75;1.95;;;1.00;99.90;;;;;;5068808;28;20552;-94
2022/01/21 05:09:31;;;;;;;13.15;1.77;;;1.30;99.90;;;;;;5052438;28;20052;-95
2022/01/21 05:12:02;;;;;;;220.48;12.30;;;1.20;99.90;;;;;;5055437;28;20118;-95
2022/01/21 05:14:48;;;;;;;17.77;1.75;;;1.00;99.90;;;;;;5054269;28;20082;-94
2022/01/21 05:17:15;;;;;;;15.88;2.33;;;1.10;99.90;;;;;;5050752;28;20187;-96
2022/01/21 05:19:41;;;;;;;16.88;1.40;;;1.10;99.90;;;;;;5051482;28;20069;-96
2022/01/21 05:22:08;;;;;;;14.40;1.67;;;1.20;99.90;;;;;;5068726;28;20048;-95
2022/01/21 05:24:34;;;;;;;13.50;1.65;;;0.90;99.90;;;;;;5132157;27;20043;-95
2022/01/21 05:27:05;;;;;;;17.02;1.50;;;1.30;99.90;;;;;;5136088;27;20045;-95
2022/01/21 05:29:33;;;;;;;13.90;1.13;;;1.00;99.90;;;;;;5135827;27;20046;-96
2022/01/21 05:32:00;;;;;;;8.20;1.27;;;0.90;99.90;;;;;;5135222;27;20075;-96
2022/01/21 05:34:38;;;;;;;11.50;1.60;;;1.00;99.90;;;;;;5135008;27;20101;-95
2022/01/21 05:37:04;;;;;;;12.18;1.30;;;0.80;99.90;;;;;;5134248;27;20046;-95
2022/01/21 05:39:33;;;;;;;16.38;1.35;;;0.90;99.90;;;;;;5134265;27;20035;-94
2022/01/21 05:42:00;;;;;;;14.48;1.40;;;0.70;99.90;;;;;;5150127;27;20047;-95
2022/01/21 05:46:59;;;;;;;10.52;1.50;;;0.70;99.90;;;;;;5148568;27;20042;-94
2022/01/21 05:49:32;;;;;;;13.70;1.42;;;0.70;99.90;;;;;;5125078;27;20042;-94
2022/01/21 05:52:04;;;;;;;17.30;1.42;;;0.40;99.90;;;;;;5146237;27;20043;-95
2022/01/21 05:54:31;;;;;;;13.02;1.50;;;0.50;99.90;;;;;;5125636;27;20125;-95
2022/01/21 05:56:57;;;;;;;11.73;1.55;;;0.70;99.90;;;;;;5124282;27;20042;-96
2022/01/21 05:59:23;;;;;;;22.40;1.98;;;0.80;99.90;;;;;;5131208;27;20038;-94
2022/01/21 06:01:52;;;;;;;582.30;30.05;;;0.60;99.90;;;;;;5125858;27;20121;-96
2022/01/21 06:04:18;;;;;;;15.77;1.50;;;0.80;99.90;;;;;;5130341;27;20061;-95
2022/01/21 06:06:44;;;;;;;19.63;2.05;;;0.90;99.90;;;;;;5129348;27;20035;-96
2022/01/21 06:09:10;;;;;;;15.90;1.92;;;0.70;99.90;;;;;;5131507;27;20047;-96
2022/01/21 06:11:36;;;;;;;15.70;1.85;;;0.80;99.90;;;;;;5128901;27;20392;-96
2022/01/21 06:14:03;;;;;;;17.80;1.88;;;0.90;99.90;;;;;;5129023;27;20103;-96
2022/01/21 06:16:29;;;;;;;17.50;1.85;;;0.90;99.90;;;;;;5128034;27;20448;-94
2022/01/21 06:18:55;;;;;;;16.05;1.98;;;0.90;99.90;;;;;;5144597;27;20030;-95
2022/01/21 06:21:22;;;;;;;141.90;8.38;;;1.00;99.90;;;;;;5128132;27;20049;-95
2022/01/21 06:23:48;;;;;;;15.55;1.92;;;0.90;99.90;;;;;;5126528;27;20049;-96
2022/01/21 06:26:14;;;;;;;16.15;1.25;;;0.90;99.90;;;;;;5141229;27;20035;-95
2022/01/21 06:28:43;;;;;;;14.63;1.48;;;1.20;99.90;;;;;;5125382;27;20134;-96
2022/01/21 06:31:09;;;;;;;1405.68;147.00;;;0.80;99.90;;;;;;5126082;27;20042;-95
2022/01/21 06:33:34;;;;;;;46.38;3.35;;;0.70;99.90;;;;;;5124446;27;20043;-96
2022/01/21 06:36:00;;;;;;;17.50;1.70;;;1.20;99.90;;;;;;5124861;27;20039;-95
2022/01/21 06:38:29;;;;;;;15.52;1.50;;;1.00;99.90;;;;;;5125226;27;20095;-96
2022/01/21 06:40:55;;;;;;;16.23;1.50;;;1.30;99.90;;;;;;5123966;27;20075;-94
2022/01/21 06:43:21;;;;;;;58.22;4.20;;;1.10;99.90;;;;;;5125887;27;20062;-96
2022/01/21 06:45:49;;;;;;;14.77;2.20;;;1.30;99.90;;;;;;5142069;27;20034;-96
2022/01/21 06:48:14;;;;;;;44.92;3.13;;;1.50;99.90;;;;;;5125203;27;20046;-95
2022/01/21 06:50:42;;;;;;;7.63;1.50;;;1.30;99.90;;;;;;5124833;27;20057;-95
2022/01/21 06:53:08;;;;;;;15.25;1.50;;;1.30;99.90;;;;;;5141395;27;20078;-94
2022/01/21 06:55:35;;;;;;;15.45;1.95;;;1.20;99.90;;;;;;5140407;27;20125;-94
2022/01/21 06:58:01;;;;;;;11.73;1.10;;;1.40;99.90;;;;;;5123512;27;20042;-96
2022/01/21 07:00:27;;;;;;;23.27;1.45;;;1.10;99.90;;;;;;5123305;27;20038;-95
2022/01/21 07:02:54;;;;;;;14.88;1.67;;;0.90;99.90;;;;;;5123387;27;20486;-95
2022/01/21 07:05:22;;;;;;;19.85;1.70;;;1.10;99.90;;;;;;5123399;27;20042;-94
2022/01/21 07:07:48;;;;;;;16.02;1.48;;;0.70;99.90;;;;;;5123076;27;20095;-95
2022/01/21 07:10:15;;;;;;;15.05;1.33;;;0.60;99.90;;;;;;5122717;27;20053;-95
2022/01/21 07:12:42;;;;;;;8.48;1.17;;;0.50;99.90;;;;;;5124274;27;20483;-95
2022/01/21 07:15:09;;;;;;;20.83;1.77;;;0.50;99.90;;;;;;5123726;27;20475;-95
2022/01/21 07:17:35;;;;;;;11.20;1.50;;;0.50;99.90;;;;;;5124670;27;20042;-95
2022/01/21 07:20:02;;;;;;;8.95;1.23;;;0.80;99.90;;;;;;5125684;27;20041;-95
2022/01/21 07:22:28;;;;;;;15.65;1.45;;;0.50;99.90;;;;;;5124299;27;20110;-94
2022/01/21 07:24:54;;;;;;;19.60;2.13;;;0.70;99.90;;;;;;5124178;27;20035;-96
2022/01/21 07:27:19;;;;;;;11.73;1.40;;;0.50;99.90;;;;;;5124763;27;20081;-95
2022/01/21 07:29:45;;;;;;;12.00;1.40;;;0.60;99.90;;;;;;5124203;27;20051;-94
2022/01/21 07:32:30;;;;;;;15.77;1.42;;;0.60;99.90;;;;;;5123935;27;20102;-96
2022/01/21 07:34:55;;;;;;;15.73;1.63;;;0.60;99.90;;;;;;5125921;27;20043;-95
2022/01/21 07:37:21;;;;;;;17.50;1.30;;;0.60;99.90;;;;;;5122337;27;20118;-95
2022/01/21 07:39:50;;;;;;;16.55;1.85;;;0.90;99.90;;;;;;5125975;27;20063;-96
2022/01/21 07:42:16;;;;;;;15.98;1.67;;;0.60;99.90;;;;;;5125846;27;20042;-96
2022/01/21 07:44:41;;;;;;;14.88;2.08;;;0.70;99.90;;;;;;5146143;27;20073;-96
2022/01/21 07:47:07;;;;;;;18.77;1.60;;;0.70;99.90;;;;;;5144607;27;20042;-95
2022/01/21 07:49:33;;;;;;;18.30;1.50;;;0.90;99.90;;;;;;5129104;27;20078;-96
2022/01/21 07:52:01;;;;;;;15.85;1.50;;;0.90;99.90;;;;;;5127088;27;20091;-93
2022/01/21 07:54:32;;;;;;;13.57;1.52;;;1.00;99.90;;;;;;5126875;27;20414;-95
2022/01/21 07:56:58;;;;;;;9.85;1.50;;;1.10;99.90;;;;;;5127334;27;20528;-95
2022/01/21 07:59:29;;;;;;;7.95;1.23;;;1.10;99.90;;;;;;5126110;27;20039;-95
2022/01/21 08:01:57;;;;;;;13.30;1.33;;;1.10;99.90;;;;;;5125678;27;20125;-95
2022/01/21 08:04:23;;;;;;;7.63;1.25;;;1.10;99.90;;;;;;5124513;27;20498;-95
2022/01/21 08:06:48;;;;;;;13.30;1.20;;;1.20;99.90;;;;;;5123442;27;20042;-95
2022/01/21 08:09:16;;;;;;;14.35;1.45;;;1.50;99.90;;;;;;5123692;27;20047;-94
2022/01/21 08:11:42;;;;;;;18.00;1.58;;;1.40;99.90;;;;;;5124474;27;20043;-95
2022/01/21 08:14:08;;;;;;;22.45;1.52;;;1.10;99.90;;;;;;5123710;27;20042;-94
2022/01/21 08:16:35;;;;;;;15.55;1.58;;;1.80;99.90;;;;;;5122916;27;20039;-96
2022/01/21 08:19:03;;;;;;;17.63;1.85;;;1.30;99.90;;;;;;5124266;27;20073;-95
2022/01/21 08:21:29;;;;;;;11.57;1.23;;;1.40;99.90;;;;;;5123308;27;20038;-94
2022/01/21 08:23:56;;;;;;;15.80;1.73;;;1.50;99.90;;;;;;5123151;27;20361;-95
2022/01/21 08:26:30;;;;;;;7.38;1.30;;;1.50;99.90;;;;;;5138615;27;20484;-95
2022/01/21 08:28:56;;;;;;;16.05;1.42;;;1.80;99.90;;;;;;5122902;27;20038;-95
2022/01/21 08:31:24;;;;;;;18.50;1.67;;;1.70;99.90;;;;;;5120915;27;20043;-94
2022/01/21 08:33:50;;;;;;;18.25;2.05;;;1.60;99.90;;;;;;5140288;27;20046;-96
2022/01/21 08:36:19;;;;;;;18.30;2.10;;;1.50;99.90;;;;;;5122068;27;20041;-94
2022/01/21 08:38:44;;;;;;;12.00;1.50;;;1.60;99.90;;;;;;5122122;27;20035;-95
2022/01/21 08:41:10;;;;;;;13.05;1.50;;;1.60;99.90;;;;;;5122337;27;20535;-95
2022/01/21 08:43:37;;;;;;;14.07;1.80;;;1.60;99.90;;;;;;5122077;27;20047;-95
2022/01/21 08:46:03;;;;;;;12.48;1.80;;;1.70;99.90;;;;;;5121659;27;20049;-95
2022/01/21 08:48:29;;;;;;;14.48;1.58;;;1.60;99.90;;;;;;5120974;27;20576;-95
2022/01/21 08:50:57;;;;;;;15.80;2.08;;;1.60;99.90;;;;;;5121039;27;20074;-94
2022/01/21 08:53:42;;;;;;;9.50;1.60;;;1.70;99.90;;;;;;5121919;27;20039;-96
2022/01/21 08:56:13;;;;;;;16.45;1.50;;;1.80;99.90;;;;;;5121708;27;20046;-96
2022/01/21 08:58:42;;;;;;;17.08;1.90;;;1.90;99.90;;;;;;5122365;27;20045;-96
2022/01/21 09:01:12;;;;;;;14.68;2.22;;;2.00;99.90;;;;;;5138751;27;20045;-95
2022/01/21 09:03:39;;;;;;;14.15;2.20;;;2.10;99.90;;;;;;5125356;27;20034;-95
2022/01/21 09:06:06;;;;;;;15.93;1.88;;;2.20;99.90;;;;;;5123258;27;20043;-94
2022/01/21 09:08:50;;;;;;;16.23;2.08;;;2.40;99.90;;;;;;5121420;27;20395;-95
2022/01/21 09:11:16;;;;;;;13.68;1.70;;;2.60;99.90;;;;;;5120224;27;20046;-93
2022/01/21 09:13:42;;;;;;;16.75;1.95;;;3.20;99.90;;;;;;5120702;27;20129;-96
2022/01/21 09:16:09;;;;;;;16.88;1.77;;;3.50;99.90;;;;;;5137583;27;20039;-94
2022/01/21 09:18:53;;;;;;;16.67;1.98;;;3.90;99.90;;;;;;5119883;27;20494;-94
2022/01/21 09:21:23;;;;;;;7.03;1.48;;;3.90;99.90;;;;;;5120354;27;20035;-93
2022/01/21 09:23:49;;;;;;;11.17;2.37;;;4.30;99.90;;;;;;5137351;27;20583;-92
2022/01/21 09:26:22;;;;;;;14.77;1.58;;;4.10;99.90;;;;;;5119882;27;20031;-93
2022/01/21 09:28:49;;;;;;;18.70;1.95;;;4.30;99.90;;;;;;5119942;27;20091;-92
2022/01/21 09:31:16;;;;;;;14.00;2.25;;;4.10;99.90;;;;;;5119821;27;20038;-91
2022/01/21 09:33:42;;;;;;;12.60;1.60;;;3.90;99.90;;;;;;5120161;27;20039;-92
2022/01/21 09:36:10;;;;;;;12.00;1.80;;;3.90;99.90;;;;;;5119943;27;20031;-92
2022/01/21 09:38:37;;;;;;;12.07;1.67;;;3.90;99.90;;;;;;5120157;27;20039;-91
2022/01/21 09:41:05;;;;;;;12.57;2.38;;;3.80;99.90;;;;;;5119559;27;20087;-92
2022/01/21 09:43:33;;;;;;;15.07;2.13;;;3.70;99.90;;;;;;5136721;27;20095;-92
2022/01/21 09:46:04;;;;;;;13.25;1.77;;;3.80;99.90;;;;;;5119850;27;20045;-93
2022/01/21 09:48:35;;;;;;;;;;;3.60;99.90;;;;;;5120040;27;20051;-92
2022/01/21 09:51:02;;;;;;;16.30;2.00;;;3.50;99.90;;;;;;5137049;27;19919;-92
2022/01/21 09:53:34;;;;;;;14.10;1.55;;;3.80;99.90;;;;;;5119348;27;20087;-92
2022/01/21 09:56:02;;;;;;;16.17;8.20;;;3.60;99.90;;;;;;5119803;27;20038;-93
2022/01/21 09:58:29;;;;;;;14.45;1.52;;;3.70;99.90;;;;;;5119795;27;20051;-92
2022/01/21 10:01:00;;;;;;;10.25;1.58;;;3.70;99.90;;;;;;5136961;27;20039;-93
2022/01/21 10:03:26;;;;;;;18.88;2.42;;;3.80;99.90;;;;;;5120063;27;20042;-92
2022/01/21 10:05:54;;;;;;;13.38;1.75;;;4.10;99.90;;;;;;5119669;27;20379;-94
2022/01/21 10:08:25;;;;;;;12.50;1.80;;;4.00;99.90;;;;;;5120377;27;20049;-94
2022/01/21 10:10:51;;;;;;;17.77;1.90;;;4.10;99.90;;;;;;5120043;27;20464;-95
2022/01/21 10:13:19;;;;;;;18.85;2.15;;;4.70;99.90;;;;;;5119666;27;20043;-94
2022/01/21 10:15:46;;;;;;;16.55;2.13;;;4.70;99.90;;;;;;5119842;27;20042;-93
2022/01/21 10:18:20;;;;;;;10.52;1.60;;;4.80;99.90;;;;;;5120212;27;20091;-93
2022/01/21 10:21:10;;;;;;;13.38;1.70;;;5.00;99.90;;;;;;5120497;27;20071;-95
2022/01/21 10:23:38;;;;;;;27.50;1.83;;;4.60;99.90;;;;;;5123961;27;20034;-95
2022/01/21 10:26:18;;;;;;;13.80;1.70;;;4.70;99.90;;;;;;5128404;27;20043;-95
2022/01/21 10:28:55;;;;;;;18.50;1.90;;;4.60;99.90;;;;;;5134813;27;20042;-95
2022/01/21 10:31:24;;;;;;;18.75;2.40;;;4.60;99.90;;;;;;5137390;27;20049;-95
2022/01/21 10:34:03;;;;;;;24.27;2.90;;;4.50;99.90;;;;;;5137040;27;20365;-96
2022/01/21 10:36:34;;;;;;;13.13;1.67;;;4.90;99.90;;;;;;5135510;27;20039;-96
2022/01/21 10:39:19;;;;;;;20.70;1.98;;;4.80;99.90;;;;;;5137048;27;20043;-95
2022/01/21 10:41:49;;;;;;;21.60;1.70;;;4.80;99.90;;;;;;5134252;27;20042;-95
2022/01/21 10:44:27;;;;;;;20.67;2.30;;;4.90;99.90;;;;;;5126276;27;20039;-94
2022/01/21 10:47:07;;;;;;;19.70;2.30;;;4.80;99.90;;;;;;5124130;27;20038;-93
2022/01/21 10:49:35;;;;;;;25.10;3.25;;;4.90;99.90;;;;;;5120436;27;20058;-96
2022/01/21 10:52:04;;;;;;;19.52;2.47;;;5.20;99.90;;;;;;5139213;27;20051;-94
2022/01/21 10:54:30;;;;;;;14.20;2.97;;;5.10;99.90;;;;;;5123343;27;20074;-94
2022/01/21 10:57:17;;;;;;;25.83;3.63;;;5.50;99.90;;;;;;5125433;27;20066;-95
2022/01/21 10:59:52;;;;;;;25.40;4.35;;;5.40;99.90;;;;;;5124819;27;20046;-93
2022/01/21 11:02:39;;;;;;;29.90;4.18;;;6.00;99.90;;;;;;5142283;27;20117;-95
2022/01/21 11:05:27;;;;;;;20.27;3.58;;;6.00;99.90;;;;;;5124349;27;20043;-94
2022/01/21 11:08:05;;;;;;;26.20;3.92;;;6.00;99.90;;;;;;5123468;27;20042;-95
2022/01/21 11:10:40;;;;;;;20.50;3.65;;;5.80;99.90;;;;;;5123320;27;20055;-95
2022/01/21 11:13:11;;;;;;;27.38;4.22;;;5.70;99.90;;;;;;5140476;27;20039;-94
2022/01/21 11:15:45;;;;;;;29.42;4.35;;;5.70;99.90;;;;;;5123049;27;20049;-95
2022/01/21 11:18:14;;;;;;;20.75;4.32;;;5.80;99.90;;;;;;5122508;27;20050;-93
2022/01/21 11:20:47;;;;;;;29.25;6.63;;;5.60;99.90;;;;;;5124095;27;20421;-94
2022/01/21 11:23:14;;;;;;;27.75;5.30;;;5.60;99.90;;;;;;5123145;27;20042;-95
2022/01/21 11:25:48;;;;;;;24.25;5.22;;;5.60;99.90;;;;;;5123300;27;20099;-95
2022/01/21 11:28:27;;;;;;;21.02;5.03;;;5.80;99.90;;;;;;5123330;27;20045;-94
2022/01/21 11:30:54;;;;;;;19.98;4.15;;;6.20;99.90;;;;;;5122753;27;20046;-93
2022/01/21 11:33:21;;;;;;;21.63;4.05;;;6.30;99.90;;;;;;5122452;27;20038;-94
2022/01/21 11:35:49;;;;;;;23.23;4.28;;;6.50;99.90;;;;;;5123089;27;20027;-94
2022/01/21 11:38:18;;;;;;;22.23;3.53;;;6.30;99.90;;;;;;5122794;27;20030;-94
2022/01/21 11:40:44;;;;;;;20.77;3.20;;;6.20;99.90;;;;;;5122895;27;20038;-94
2022/01/21 11:43:11;;;;;;;21.08;3.30;;;6.20;99.90;;;;;;5123269;27;20039;-93
2022/01/21 11:46:06;;;;;;;16.10;2.75;;;6.00;99.90;;;;;;5140689;27;20035;-94
2022/01/21 11:48:51;;;;;;;18.55;2.90;;;6.20;99.90;;;;;;5139295;27;20474;-94
2022/01/21 11:51:33;;;;;;;21.27;2.97;;;6.00;99.90;;;;;;5122360;27;20095;-96
2022/01/21 11:54:01;;;;;;;20.05;2.90;;;6.00;99.90;;;;;;5124230;27;20475;-94
2022/01/21 11:56:43;;;;;;;20.60;2.88;;;6.00;99.90;;;;;;5123969;27;20146;-93
2022/01/21 12:02:18;;;;;;;18.63;2.47;;;6.10;99.90;;;;;;5139042;27;20125;-93
2022/01/21 12:05:02;;;;;;;19.92;2.72;;;6.30;99.90;;;;;;5122609;27;20035;-93
2022/01/21 12:07:41;;;;;;;13.45;1.90;;;6.20;99.90;;;;;;5138830;27;20049;-93
2022/01/21 12:10:21;;;;;;;10.95;1.92;;;6.30;99.90;;;;;;5121921;27;20038;-94
2022/01/21 12:13:01;;;;;;;13.73;2.60;;;6.20;99.90;;;;;;5122298;27;20106;-95
2022/01/21 12:18:35;;;;;;;12.60;2.20;;;6.50;99.90;;;;;;5138958;27;20045;-95
2022/01/21 12:21:23;;;;;;;15.70;2.17;;;6.50;99.90;;;;;;5139657;27;20098;-93
2022/01/21 12:23:49;;;;;;;21.95;2.60;;;6.50;99.90;;;;;;5121582;27;20051;-93
2022/01/21 12:26:23;;;;;;;11.52;2.17;;;6.50;99.90;;;;;;5121938;27;20538;-94
2022/01/21 12:28:56;;;;;;;18.63;1.88;;;6.40;99.90;;;;;;5122741;27;20045;-95
2022/01/21 12:31:48;;;;;;;13.95;1.80;;;6.50;99.90;;;;;;5121685;27;20425;-94
2022/01/21 12:34:17;;;;;;;13.85;1.50;;;6.50;99.90;;;;;;5121902;27;20041;-94
2022/01/21 12:36:55;;;;;;;11.40;1.88;;;6.50;99.90;;;;;;5121478;27;20042;-93
2022/01/21 12:39:41;;;;;;;14.00;2.17;;;6.60;99.90;;;;;;5122755;27;20203;-93
2022/01/21 12:42:25;;;;;;;10.48;1.85;;;6.70;99.90;;;;;;5121202;27;20494;-93
2022/01/21 12:44:57;;;;;;;14.95;2.17;;;6.80;99.90;;;;;;5122110;27;20045;-93
2022/01/21 12:47:41;;;;;;;9.60;1.23;;;6.90;99.90;;;;;;5121083;27;20046;-93
2022/01/21 12:50:24;;;;;;;10.65;1.90;;;6.90;99.90;;;;;;5121638;27;20084;-93
2022/01/21 12:52:53;;;;;;;10.55;1.98;;;7.00;99.90;;;;;;5120924;27;20046;-93
2022/01/21 12:58:29;;;;;;;7.32;1.42;;;7.20;99.90;;;;;;5138835;27;20039;-95
2022/01/21 13:01:07;;;;;;;14.80;2.23;;;7.00;99.90;;;;;;5122550;27;20483;-94
2022/01/21 13:03:56;;;;;;;15.32;1.60;;;7.00;99.90;;;;;;5122423;27;20037;-95
2022/01/21 13:06:37;;;;;;;15.10;1.85;;;6.90;99.90;;;;;;5121673;27;20038;-94
2022/01/21 13:09:07;;;;;;;8.50;1.42;;;6.90;99.90;;;;;;5121904;27;20506;-96
2022/01/21 13:11:40;;;;;;;8.00;1.45;;;6.80;99.90;;;;;;5139188;27;20043;-94
2022/01/21 13:16:58;;;;;;;10.30;1.42;;;6.80;99.90;;;;;;5139245;27;20150;-93
2022/01/21 13:19:23;;;;;;;12.63;1.80;;;7.00;99.90;;;;;;5122183;27;20045;-95
2022/01/21 13:21:58;;;;;;;11.85;2.00;;;6.90;99.90;;;;;;5138714;27;20046;-94
2022/01/21 13:24:31;;;;;;;20.13;1.95;;;6.90;99.90;;;;;;5124803;27;20127;-95
2022/01/21 13:26:58;;;;;;;17.00;1.73;;;7.00;99.90;;;;;;5121531;27;20039;-95
2022/01/21 13:29:32;;;;;;;13.75;1.58;;;6.90;99.90;;;;;;5121619;27;20072;-93
2022/01/21 13:32:00;;;;;;;12.07;1.50;;;6.90;99.90;;;;;;5121815;27;20090;-93
2022/01/21 13:34:36;;;;;;;19.13;1.98;;;6.90;99.90;;;;;;5121294;27;20043;-95
2022/01/21 13:37:08;;;;;;;12.95;1.90;;;7.00;99.90;;;;;;5121257;27;20352;-95
2022/01/21 13:39:35;;;;;;;16.30;2.50;;;6.90;99.90;;;;;;5120787;27;20479;-94
2022/01/21 13:42:21;;;;;;;19.40;2.40;;;6.90;99.90;;;;;;5126008;27;20364;-95
2022/01/21 13:44:52;;;;;;;13.80;2.33;;;6.80;99.90;;;;;;5138283;27;20125;-94
2022/01/21 13:47:27;;;;;;;;;;;6.90;99.90;;;;;;5121452;27;20368;-93
2022/01/21 13:49:56;;;;;;;17.10;1.98;;;6.90;99.90;;;;;;5121074;27;19922;-94
2022/01/21 13:52:48;;;;;;;21.90;2.25;;;6.80;99.90;;;;;;5121196;27;20076;-92
2022/01/21 13:55:30;;;;;;;14.32;1.67;;;6.80;99.90;;;;;;5120555;27;20527;-93
2022/01/21 13:57:59;;;;;;;20.42;2.95;;;6.80;99.90;;;;;;5119953;27;20039;-93